Chadron Municipal Airport
KCDR : now visible

Airfield :











YOU CAN JOIN US ON...

 
LOGIN :

Register | Disclaimer

   EN    FR    IT 

 









Legend :    VFR   Marginal VFR   IFR   Intensive IFR   Very Intensive IFR
Visi :
Ceiling :
>= 8 km
>= 3000ft
5 to 8 km
1000 to 3000 ft
1500m to 5 km
500 to 1000 ft
800 to 1500m
200 to 500 ft
< 800m
< 200 ft
Symbols :   Thunderstorms  Fog  Heavy snow  Heavy precipitations  Wind > 20 kt






- Airport Elevation : 3297 ft


KCDR - Chadron Municipal

CURRENT METAR :
  • 080453Z AUTO 17022G33KT 10SM CLR 31/06 A2970 RMK AO2 PK WND 17046/0354 LTG DSNT SE AND S SLP016 T03110056

EXPIRED METARs :
  • 080353Z AUTO 18039G50KT 10SM CLR 33/05 A2967 RMK AO2 PK WND 19050/0346 LTG DSNT S SLP006 T03280050
  • 080349Z AUTO 18038G50KT 10SM SQ CLR 33/05 A2967 RMK AO2 PK WND 19050/0346 LTG DSNT S
  • 080253Z AUTO 20017G25KT 10SM CLR 30/08 A2971 RMK AO2 PK WND 17035/0203 LTG DSNT SW SLP023 T03000083 53012

TAF KCDR
Valid from the 08 at 04:00 until the 09 at 00:00 UTC


080412Z 0804/0824 18035G50KT P6SM SCT100
FM080500 18010G20KT P6SM SCT100
FM080600 26010KT P6SM SKC
FM081500 02010KT P6SM SKC
FM081900 11010KT P6SM SCT090
KZDV FIR / North America



MET'MAP, your aeronautical weather chart ! - Copyright ORBIFLY December 2007 - Disclaimer

ORBIFLY MET'MAP TEAM :

Programming & Development : Alexandra Zaïnal
Concept & original design : Baudouin d'Aumeries
Assistance for programming : Marc-Olivier Méhu
Technical & hardware support : Manuel Goepfert

Contact : metmap@orbifly.com




SOURCES & CREDITS :

   NOAA       Earth
Advisory